Accident, Maryland
Current Conditions -  °F | °C
As of 11:55 AM on Saturday 22 Nov 2014 (Local Time) from K2G4 Reporting Station
Overcast Overcast  
Wind Chill:   Ceiling: 2400
Heat Index:   Visibility: 10mi
Dew Point: -15°   Wind: 13mph
Humidity: 23%   Direction: 220°SW
Pressure: 30.26"   Gusts: 18mph
Location:  39.63°N, 79.32°W
Report Text: K2G4 221655Z AUTO 22011G16KT 10SM OVC024 05/M15 A3026 RMK AO1
Loading
Personal Weather Stations






























Interactive Weather Map New forecast layout! Learn more

10-Day Weather Forecast

Advertisements
Track Severe Weather on mobile